sensor_id;sensor_type;location;lat;lon;timestamp;P1;durP1;ratioP1;P2;durP2;ratioP2
21527;SDS011;10925;49.102;-0.370;2022-07-17T00:00:21;10.23;;;4.80;;
21527;SDS011;10925;49.102;-0.370;2022-07-17T00:02:48;12.63;;;4.70;;
21527;SDS011;10925;49.102;-0.370;2022-07-17T00:05:15;13.63;;;4.95;;
21527;SDS011;10925;49.102;-0.370;2022-07-17T00:07:42;15.23;;;5.40;;
21527;SDS011;10925;49.102;-0.370;2022-07-17T00:10:09;12.15;;;5.60;;
21527;SDS011;10925;49.102;-0.370;2022-07-17T00:12:36;9.63;;;4.78;;
21527;SDS011;10925;49.102;-0.370;2022-07-17T00:15:03;11.52;;;5.05;;
21527;SDS011;10925;49.102;-0.370;2022-07-17T00:17:30;20.23;;;4.90;;
21527;SDS011;10925;49.102;-0.370;2022-07-17T00:19:57;12.90;;;4.43;;
21527;SDS011;10925;49.102;-0.370;2022-07-17T00:22:24;9.93;;;4.22;;
21527;SDS011;10925;49.102;-0.370;2022-07-17T00:24:51;14.57;;;4.63;;
21527;SDS011;10925;49.102;-0.370;2022-07-17T00:27:18;12.60;;;4.55;;
21527;SDS011;10925;49.102;-0.370;2022-07-17T00:29:45;13.48;;;4.43;;
21527;SDS011;10925;49.102;-0.370;2022-07-17T00:32:11;12.30;;;4.97;;
21527;SDS011;10925;49.102;-0.370;2022-07-17T00:34:38;12.85;;;4.50;;
21527;SDS011;10925;49.102;-0.370;2022-07-17T00:37:05;11.45;;;4.60;;
21527;SDS011;10925;49.102;-0.370;2022-07-17T00:39:33;9.25;;;4.68;;
21527;SDS011;10925;49.102;-0.370;2022-07-17T00:41:59;9.27;;;4.88;;
21527;SDS011;10925;49.102;-0.370;2022-07-17T00:44:26;10.13;;;4.30;;
21527;SDS011;10925;49.102;-0.370;2022-07-17T00:46:54;11.30;;;4.30;;
21527;SDS011;10925;49.102;-0.370;2022-07-17T00:49:20;13.60;;;5.00;;
21527;SDS011;10925;49.102;-0.370;2022-07-17T00:51:47;13.20;;;6.07;;
21527;SDS011;10925;49.102;-0.370;2022-07-17T00:54:15;10.95;;;5.63;;
21527;SDS011;10925;49.102;-0.370;2022-07-17T00:56:46;10.18;;;5.03;;
21527;SDS011;10925;49.102;-0.370;2022-07-17T00:59:14;14.23;;;5.00;;
21527;SDS011;10925;49.102;-0.370;2022-07-17T01:01:41;9.68;;;4.70;;
21527;SDS011;10925;49.102;-0.370;2022-07-17T01:04:07;13.23;;;4.82;;
21527;SDS011;10925;49.102;-0.370;2022-07-17T01:06:32;11.90;;;5.03;;
21527;SDS011;10925;49.102;-0.370;2022-07-17T01:08:59;16.90;;;5.65;;
21527;SDS011;10925;49.102;-0.370;2022-07-17T01:11:24;13.20;;;5.13;;
21527;SDS011;10925;49.102;-0.370;2022-07-17T01:13:50;13.70;;;4.63;;
21527;SDS011;10925;49.102;-0.370;2022-07-17T01:16:17;9.52;;;4.70;;
21527;SDS011;10925;49.102;-0.370;2022-07-17T01:18:43;15.20;;;5.20;;
21527;SDS011;10925;49.102;-0.370;2022-07-17T01:21:10;14.50;;;5.05;;
21527;SDS011;10925;49.102;-0.370;2022-07-17T01:23:36;10.73;;;4.50;;
21527;SDS011;10925;49.102;-0.370;2022-07-17T01:26:03;12.25;;;5.15;;
21527;SDS011;10925;49.102;-0.370;2022-07-17T01:28:30;13.43;;;5.40;;
21527;SDS011;10925;49.102;-0.370;2022-07-17T01:30:57;9.40;;;4.85;;
21527;SDS011;10925;49.102;-0.370;2022-07-17T01:33:23;9.98;;;4.70;;
21527;SDS011;10925;49.102;-0.370;2022-07-17T01:35:50;15.18;;;4.80;;
21527;SDS011;10925;49.102;-0.370;2022-07-17T01:38:17;10.63;;;5.18;;
21527;SDS011;10925;49.102;-0.370;2022-07-17T01:40:42;12.10;;;5.57;;
21527;SDS011;10925;49.102;-0.370;2022-07-17T01:43:09;12.65;;;5.18;;
21527;SDS011;10925;49.102;-0.370;2022-07-17T01:45:36;12.98;;;4.70;;
21527;SDS011;10925;49.102;-0.370;2022-07-17T01:48:02;12.40;;;4.95;;
21527;SDS011;10925;49.102;-0.370;2022-07-17T01:50:27;9.35;;;5.40;;
21527;SDS011;10925;49.102;-0.370;2022-07-17T01:52:53;12.52;;;5.18;;
21527;SDS011;10925;49.102;-0.370;2022-07-17T01:55:18;11.52;;;4.70;;
21527;SDS011;10925;49.102;-0.370;2022-07-17T01:57:45;14.15;;;5.22;;
21527;SDS011;10925;49.102;-0.370;2022-07-17T02:00:14;10.82;;;5.00;;
21527;SDS011;10925;49.102;-0.370;2022-07-17T02:02:41;13.02;;;4.53;;
21527;SDS011;10925;49.102;-0.370;2022-07-17T02:05:07;9.98;;;4.82;;
21527;SDS011;10925;49.102;-0.370;2022-07-17T02:07:34;6.30;;;4.95;;
21527;SDS011;10925;49.102;-0.370;2022-07-17T02:10:03;8.32;;;4.75;;
21527;SDS011;10925;49.102;-0.370;2022-07-17T02:12:29;9.32;;;5.18;;
21527;SDS011;10925;49.102;-0.370;2022-07-17T02:14:56;8.23;;;4.28;;
21527;SDS011;10925;49.102;-0.370;2022-07-17T02:17:23;11.43;;;5.15;;
21527;SDS011;10925;49.102;-0.370;2022-07-17T02:19:49;12.10;;;4.47;;
21527;SDS011;10925;49.102;-0.370;2022-07-17T02:22:16;9.80;;;4.50;;
21527;SDS011;10925;49.102;-0.370;2022-07-17T02:24:43;8.40;;;4.47;;
21527;SDS011;10925;49.102;-0.370;2022-07-17T02:27:08;10.50;;;4.63;;
21527;SDS011;10925;49.102;-0.370;2022-07-17T02:29:35;12.15;;;5.20;;
21527;SDS011;10925;49.102;-0.370;2022-07-17T02:32:02;9.27;;;4.88;;
21527;SDS011;10925;49.102;-0.370;2022-07-17T02:34:29;15.02;;;4.75;;
21527;SDS011;10925;49.102;-0.370;2022-07-17T02:36:55;7.05;;;5.00;;
21527;SDS011;10925;49.102;-0.370;2022-07-17T02:39:22;9.45;;;5.20;;
21527;SDS011;10925;49.102;-0.370;2022-07-17T02:41:49;9.75;;;4.40;;
21527;SDS011;10925;49.102;-0.370;2022-07-17T02:44:14;10.20;;;4.75;;
21527;SDS011;10925;49.102;-0.370;2022-07-17T02:46:40;10.90;;;4.90;;
21527;SDS011;10925;49.102;-0.370;2022-07-17T02:49:05;10.63;;;5.43;;
21527;SDS011;10925;49.102;-0.370;2022-07-17T02:51:32;8.05;;;5.10;;
21527;SDS011;10925;49.102;-0.370;2022-07-17T02:53:58;11.65;;;4.95;;
21527;SDS011;10925;49.102;-0.370;2022-07-17T02:56:23;12.15;;;5.18;;
21527;SDS011;10925;49.102;-0.370;2022-07-17T02:58:49;7.65;;;4.93;;
21527;SDS011;10925;49.102;-0.370;2022-07-17T03:01:14;8.13;;;4.50;;
21527;SDS011;10925;49.102;-0.370;2022-07-17T03:03:40;7.63;;;4.10;;
21527;SDS011;10925;49.102;-0.370;2022-07-17T03:06:05;11.80;;;5.07;;
21527;SDS011;10925;49.102;-0.370;2022-07-17T03:08:31;7.97;;;4.78;;
21527;SDS011;10925;49.102;-0.370;2022-07-17T03:10:56;13.27;;;4.65;;
21527;SDS011;10925;49.102;-0.370;2022-07-17T03:13:23;8.85;;;4.40;;
21527;SDS011;10925;49.102;-0.370;2022-07-17T03:15:50;8.93;;;5.68;;
21527;SDS011;10925;49.102;-0.370;2022-07-17T03:18:17;11.38;;;5.28;;
21527;SDS011;10925;49.102;-0.370;2022-07-17T03:20:43;10.15;;;5.15;;
21527;SDS011;10925;49.102;-0.370;2022-07-17T03:23:10;9.00;;;4.97;;
21527;SDS011;10925;49.102;-0.370;2022-07-17T03:25:37;7.57;;;4.28;;
21527;SDS011;10925;49.102;-0.370;2022-07-17T03:28:04;7.20;;;4.70;;
21527;SDS011;10925;49.102;-0.370;2022-07-17T03:30:31;8.18;;;4.63;;
21527;SDS011;10925;49.102;-0.370;2022-07-17T03:36:17;9.95;;;5.05;;
21527;SDS011;10925;49.102;-0.370;2022-07-17T03:38:44;7.63;;;5.00;;
21527;SDS011;10925;49.102;-0.370;2022-07-17T03:41:11;9.07;;;4.55;;
21527;SDS011;10925;49.102;-0.370;2022-07-17T03:43:38;11.95;;;5.57;;
21527;SDS011;10925;49.102;-0.370;2022-07-17T03:46:05;9.20;;;4.43;;
21527;SDS011;10925;49.102;-0.370;2022-07-17T03:48:32;6.05;;;4.40;;
21527;SDS011;10925;49.102;-0.370;2022-07-17T03:51:01;9.63;;;4.80;;
21527;SDS011;10925;49.102;-0.370;2022-07-17T03:53:27;10.20;;;5.50;;
21527;SDS011;10925;49.102;-0.370;2022-07-17T03:55:54;9.05;;;5.18;;
21527;SDS011;10925;49.102;-0.370;2022-07-17T03:58:21;10.82;;;5.13;;
21527;SDS011;10925;49.102;-0.370;2022-07-17T04:00:46;10.15;;;4.72;;
21527;SDS011;10925;49.102;-0.370;2022-07-17T04:03:13;9.55;;;5.20;;
21527;SDS011;10925;49.102;-0.370;2022-07-17T04:05:40;6.47;;;4.82;;
21527;SDS011;10925;49.102;-0.370;2022-07-17T04:08:07;9.40;;;5.25;;
21527;SDS011;10925;49.102;-0.370;2022-07-17T04:10:33;8.80;;;4.88;;
21527;SDS011;10925;49.102;-0.370;2022-07-17T04:13:02;8.10;;;5.68;;
21527;SDS011;10925;49.102;-0.370;2022-07-17T04:15:28;14.10;;;5.60;;
21527;SDS011;10925;49.102;-0.370;2022-07-17T04:18:14;11.65;;;5.20;;
21527;SDS011;10925;49.102;-0.370;2022-07-17T04:20:39;12.43;;;5.38;;
21527;SDS011;10925;49.102;-0.370;2022-07-17T04:23:05;12.77;;;5.53;;
21527;SDS011;10925;49.102;-0.370;2022-07-17T04:25:31;11.60;;;5.32;;
21527;SDS011;10925;49.102;-0.370;2022-07-17T04:27:58;9.23;;;6.07;;
21527;SDS011;10925;49.102;-0.370;2022-07-17T04:30:25;9.43;;;5.45;;
21527;SDS011;10925;49.102;-0.370;2022-07-17T04:32:51;6.82;;;5.03;;
21527;SDS011;10925;49.102;-0.370;2022-07-17T04:35:18;11.55;;;4.97;;
21527;SDS011;10925;49.102;-0.370;2022-07-17T04:37:45;9.38;;;5.18;;
21527;SDS011;10925;49.102;-0.370;2022-07-17T04:40:12;11.95;;;5.45;;
21527;SDS011;10925;49.102;-0.370;2022-07-17T04:42:38;7.90;;;4.50;;
21527;SDS011;10925;49.102;-0.370;2022-07-17T04:45:05;9.23;;;5.30;;
21527;SDS011;10925;49.102;-0.370;2022-07-17T04:47:33;11.40;;;5.38;;
21527;SDS011;10925;49.102;-0.370;2022-07-17T04:50:00;9.98;;;4.30;;
21527;SDS011;10925;49.102;-0.370;2022-07-17T04:52:27;10.82;;;4.70;;
21527;SDS011;10925;49.102;-0.370;2022-07-17T04:54:54;7.82;;;4.93;;
21527;SDS011;10925;49.102;-0.370;2022-07-17T04:57:19;9.00;;;4.30;;
21527;SDS011;10925;49.102;-0.370;2022-07-17T04:59:46;8.13;;;4.75;;
21527;SDS011;10925;49.102;-0.370;2022-07-17T05:02:12;8.15;;;4.47;;
21527;SDS011;10925;49.102;-0.370;2022-07-17T05:04:39;9.05;;;4.38;;
21527;SDS011;10925;49.102;-0.370;2022-07-17T05:07:06;9.43;;;4.32;;
21527;SDS011;10925;49.102;-0.370;2022-07-17T05:09:32;7.60;;;4.03;;
21527;SDS011;10925;49.102;-0.370;2022-07-17T05:11:59;8.05;;;4.30;;
21527;SDS011;10925;49.102;-0.370;2022-07-17T05:14:26;6.90;;;3.83;;
21527;SDS011;10925;49.102;-0.370;2022-07-17T05:16:53;12.68;;;4.88;;
21527;SDS011;10925;49.102;-0.370;2022-07-17T05:19:18;11.63;;;4.40;;
21527;SDS011;10925;49.102;-0.370;2022-07-17T05:21:45;5.63;;;3.83;;
21527;SDS011;10925;49.102;-0.370;2022-07-17T05:24:12;8.00;;;3.72;;
21527;SDS011;10925;49.102;-0.370;2022-07-17T05:26:38;8.90;;;3.80;;
21527;SDS011;10925;49.102;-0.370;2022-07-17T05:29:05;5.82;;;3.38;;
21527;SDS011;10925;49.102;-0.370;2022-07-17T05:31:32;6.32;;;3.70;;
21527;SDS011;10925;49.102;-0.370;2022-07-17T05:33:59;6.72;;;3.80;;
21527;SDS011;10925;49.102;-0.370;2022-07-17T05:36:25;8.73;;;3.58;;
21527;SDS011;10925;49.102;-0.370;2022-07-17T05:38:52;7.93;;;3.70;;
21527;SDS011;10925;49.102;-0.370;2022-07-17T05:41:19;7.20;;;3.50;;
21527;SDS011;10925;49.102;-0.370;2022-07-17T05:43:45;5.30;;;2.80;;
21527;SDS011;10925;49.102;-0.370;2022-07-17T05:46:12;8.13;;;3.55;;
21527;SDS011;10925;49.102;-0.370;2022-07-17T05:48:39;5.28;;;3.03;;
21527;SDS011;10925;49.102;-0.370;2022-07-17T05:51:06;5.43;;;3.65;;
21527;SDS011;10925;49.102;-0.370;2022-07-17T05:53:38;8.02;;;3.50;;
21527;SDS011;10925;49.102;-0.370;2022-07-17T05:56:03;9.38;;;3.30;;
21527;SDS011;10925;49.102;-0.370;2022-07-17T05:58:30;10.13;;;3.67;;
21527;SDS011;10925;49.102;-0.370;2022-07-17T06:00:57;7.97;;;3.28;;
21527;SDS011;10925;49.102;-0.370;2022-07-17T06:03:23;8.43;;;3.20;;
21527;SDS011;10925;49.102;-0.370;2022-07-17T06:05:49;5.75;;;3.33;;
21527;SDS011;10925;49.102;-0.370;2022-07-17T06:08:16;8.88;;;3.45;;
21527;SDS011;10925;49.102;-0.370;2022-07-17T06:10:42;8.60;;;3.08;;
21527;SDS011;10925;49.102;-0.370;2022-07-17T06:13:08;13.30;;;3.58;;
21527;SDS011;10925;49.102;-0.370;2022-07-17T06:15:33;11.52;;;3.78;;
21527;SDS011;10925;49.102;-0.370;2022-07-17T06:18:01;8.07;;;2.90;;
21527;SDS011;10925;49.102;-0.370;2022-07-17T06:20:27;10.68;;;3.38;;
21527;SDS011;10925;49.102;-0.370;2022-07-17T06:22:54;6.15;;;2.85;;
21527;SDS011;10925;49.102;-0.370;2022-07-17T06:25:21;6.45;;;3.17;;
21527;SDS011;10925;49.102;-0.370;2022-07-17T06:27:47;5.75;;;3.55;;
21527;SDS011;10925;49.102;-0.370;2022-07-17T06:30:13;6.95;;;2.97;;
21527;SDS011;10925;49.102;-0.370;2022-07-17T06:32:40;6.25;;;2.50;;
21527;SDS011;10925;49.102;-0.370;2022-07-17T06:35:06;3.20;;;2.40;;
21527;SDS011;10925;49.102;-0.370;2022-07-17T06:37:33;9.40;;;2.40;;
21527;SDS011;10925;49.102;-0.370;2022-07-17T06:40:00;5.03;;;2.67;;
21527;SDS011;10925;49.102;-0.370;2022-07-17T06:42:27;4.20;;;2.30;;
21527;SDS011;10925;49.102;-0.370;2022-07-17T06:44:57;2.92;;;2.00;;
21527;SDS011;10925;49.102;-0.370;2022-07-17T06:47:24;6.50;;;2.33;;
21527;SDS011;10925;49.102;-0.370;2022-07-17T06:49:51;7.25;;;2.28;;
21527;SDS011;10925;49.102;-0.370;2022-07-17T06:52:18;5.40;;;2.50;;
21527;SDS011;10925;49.102;-0.370;2022-07-17T06:54:44;8.23;;;2.30;;
21527;SDS011;10925;49.102;-0.370;2022-07-17T06:57:10;7.85;;;2.33;;
21527;SDS011;10925;49.102;-0.370;2022-07-17T06:59:37;6.78;;;2.40;;
21527;SDS011;10925;49.102;-0.370;2022-07-17T07:02:03;15.27;;;2.53;;
21527;SDS011;10925;49.102;-0.370;2022-07-17T07:04:30;8.90;;;2.88;;
21527;SDS011;10925;49.102;-0.370;2022-07-17T07:06:57;6.72;;;2.30;;
21527;SDS011;10925;49.102;-0.370;2022-07-17T07:09:24;10.95;;;2.15;;
21527;SDS011;10925;49.102;-0.370;2022-07-17T07:11:59;6.47;;;2.10;;
21527;SDS011;10925;49.102;-0.370;2022-07-17T07:14:26;6.05;;;1.98;;
21527;SDS011;10925;49.102;-0.370;2022-07-17T07:16:51;2.50;;;1.80;;
21527;SDS011;10925;49.102;-0.370;2022-07-17T07:19:18;7.22;;;2.17;;
21527;SDS011;10925;49.102;-0.370;2022-07-17T07:21:45;4.90;;;2.15;;
21527;SDS011;10925;49.102;-0.370;2022-07-17T07:24:10;5.63;;;2.10;;
21527;SDS011;10925;49.102;-0.370;2022-07-17T07:26:37;5.20;;;1.65;;
21527;SDS011;10925;49.102;-0.370;2022-07-17T07:29:04;5.68;;;2.00;;
21527;SDS011;10925;49.102;-0.370;2022-07-17T07:31:31;3.42;;;1.92;;
21527;SDS011;10925;49.102;-0.370;2022-07-17T07:33:58;6.03;;;2.20;;
21527;SDS011;10925;49.102;-0.370;2022-07-17T07:36:24;3.58;;;2.05;;
21527;SDS011;10925;49.102;-0.370;2022-07-17T07:38:55;3.78;;;1.80;;
21527;SDS011;10925;49.102;-0.370;2022-07-17T07:41:22;5.05;;;2.08;;
21527;SDS011;10925;49.102;-0.370;2022-07-17T07:43:49;4.88;;;2.10;;
21527;SDS011;10925;49.102;-0.370;2022-07-17T07:46:15;3.17;;;1.80;;
21527;SDS011;10925;49.102;-0.370;2022-07-17T07:48:42;5.35;;;1.95;;
21527;SDS011;10925;49.102;-0.370;2022-07-17T07:51:09;4.18;;;1.50;;
21527;SDS011;10925;49.102;-0.370;2022-07-17T07:53:37;5.97;;;2.08;;
21527;SDS011;10925;49.102;-0.370;2022-07-17T07:56:04;2.50;;;1.70;;
21527;SDS011;10925;49.102;-0.370;2022-07-17T07:58:31;4.90;;;1.77;;
21527;SDS011;10925;49.102;-0.370;2022-07-17T08:00:57;2.10;;;1.60;;
21527;SDS011;10925;49.102;-0.370;2022-07-17T08:03:24;2.65;;;1.55;;
21527;SDS011;10925;49.102;-0.370;2022-07-17T08:05:51;2.17;;;1.67;;
21527;SDS011;10925;49.102;-0.370;2022-07-17T08:08:18;5.35;;;1.90;;
21527;SDS011;10925;49.102;-0.370;2022-07-17T08:10:45;2.92;;;1.75;;
21527;SDS011;10925;49.102;-0.370;2022-07-17T08:13:12;4.65;;;1.60;;
21527;SDS011;10925;49.102;-0.370;2022-07-17T08:15:38;5.47;;;1.67;;
21527;SDS011;10925;49.102;-0.370;2022-07-17T08:18:04;3.03;;;1.60;;
21527;SDS011;10925;49.102;-0.370;2022-07-17T08:20:31;2.83;;;1.80;;
21527;SDS011;10925;49.102;-0.370;2022-07-17T08:22:58;4.07;;;1.90;;
21527;SDS011;10925;49.102;-0.370;2022-07-17T08:25:31;4.15;;;1.45;;
21527;SDS011;10925;49.102;-0.370;2022-07-17T08:27:58;5.60;;;1.90;;
21527;SDS011;10925;49.102;-0.370;2022-07-17T08:30:26;6.50;;;1.77;;
21527;SDS011;10925;49.102;-0.370;2022-07-17T08:32:53;6.43;;;1.70;;
21527;SDS011;10925;49.102;-0.370;2022-07-17T08:35:19;5.15;;;1.90;;
21527;SDS011;10925;49.102;-0.370;2022-07-17T08:37:48;2.72;;;1.88;;
21527;SDS011;10925;49.102;-0.370;2022-07-17T08:40:16;3.15;;;1.92;;
21527;SDS011;10925;49.102;-0.370;2022-07-17T08:42:43;2.97;;;1.90;;
21527;SDS011;10925;49.102;-0.370;2022-07-17T08:45:09;3.83;;;1.70;;
21527;SDS011;10925;49.102;-0.370;2022-07-17T08:47:37;3.40;;;1.65;;
21527;SDS011;10925;49.102;-0.370;2022-07-17T08:50:04;3.35;;;1.50;;
21527;SDS011;10925;49.102;-0.370;2022-07-17T08:52:31;3.70;;;1.83;;
21527;SDS011;10925;49.102;-0.370;2022-07-17T08:54:58;2.65;;;1.92;;
21527;SDS011;10925;49.102;-0.370;2022-07-17T08:57:25;4.80;;;1.90;;
21527;SDS011;10925;49.102;-0.370;2022-07-17T08:59:50;6.10;;;2.05;;
21527;SDS011;10925;49.102;-0.370;2022-07-17T09:02:17;4.35;;;1.80;;
21527;SDS011;10925;49.102;-0.370;2022-07-17T09:04:52;5.70;;;1.85;;
21527;SDS011;10925;49.102;-0.370;2022-07-17T09:07:18;2.75;;;1.80;;
21527;SDS011;10925;49.102;-0.370;2022-07-17T09:09:51;3.13;;;1.70;;
21527;SDS011;10925;49.102;-0.370;2022-07-17T09:12:23;2.55;;;1.60;;
21527;SDS011;10925;49.102;-0.370;2022-07-17T09:14:51;3.00;;;1.67;;
21527;SDS011;10925;49.102;-0.370;2022-07-17T09:17:17;2.85;;;1.90;;
21527;SDS011;10925;49.102;-0.370;2022-07-17T09:19:45;5.70;;;2.00;;
21527;SDS011;10925;49.102;-0.370;2022-07-17T09:27:07;2.85;;;2.08;;
21527;SDS011;10925;49.102;-0.370;2022-07-17T09:29:34;5.07;;;1.95;;
21527;SDS011;10925;49.102;-0.370;2022-07-17T09:32:01;4.20;;;1.70;;
21527;SDS011;10925;49.102;-0.370;2022-07-17T09:34:28;4.43;;;1.70;;
21527;SDS011;10925;49.102;-0.370;2022-07-17T09:37:01;7.13;;;2.17;;
21527;SDS011;10925;49.102;-0.370;2022-07-17T09:39:36;3.95;;;1.90;;
21527;SDS011;10925;49.102;-0.370;2022-07-17T09:42:02;2.42;;;1.80;;
21527;SDS011;10925;49.102;-0.370;2022-07-17T09:44:30;4.60;;;2.45;;
21527;SDS011;10925;49.102;-0.370;2022-07-17T09:46:57;2.88;;;1.90;;
21527;SDS011;10925;49.102;-0.370;2022-07-17T09:49:25;4.82;;;2.35;;
21527;SDS011;10925;49.102;-0.370;2022-07-17T09:51:53;5.30;;;2.33;;
21527;SDS011;10925;49.102;-0.370;2022-07-17T09:54:21;5.03;;;1.98;;
21527;SDS011;10925;49.102;-0.370;2022-07-17T09:56:47;4.15;;;2.05;;
21527;SDS011;10925;49.102;-0.370;2022-07-17T09:59:14;7.32;;;4.90;;
21527;SDS011;10925;49.102;-0.370;2022-07-17T10:01:42;19.92;;;15.30;;
21527;SDS011;10925;49.102;-0.370;2022-07-17T10:04:09;4.38;;;3.20;;
21527;SDS011;10925;49.102;-0.370;2022-07-17T10:06:35;28.02;;;18.88;;
21527;SDS011;10925;49.102;-0.370;2022-07-17T10:09:01;9.73;;;7.05;;
21527;SDS011;10925;49.102;-0.370;2022-07-17T10:11:28;4.65;;;2.40;;
21527;SDS011;10925;49.102;-0.370;2022-07-17T10:13:56;5.53;;;2.20;;
21527;SDS011;10925;49.102;-0.370;2022-07-17T10:16:33;5.57;;;2.78;;
21527;SDS011;10925;49.102;-0.370;2022-07-17T10:19:18;8.13;;;3.55;;
21527;SDS011;10925;49.102;-0.370;2022-07-17T10:21:59;5.88;;;2.58;;
21527;SDS011;10925;49.102;-0.370;2022-07-17T10:24:43;2.97;;;2.40;;
21527;SDS011;10925;49.102;-0.370;2022-07-17T10:27:17;4.80;;;2.10;;
21527;SDS011;10925;49.102;-0.370;2022-07-17T10:29:57;6.13;;;2.50;;
21527;SDS011;10925;49.102;-0.370;2022-07-17T10:32:25;5.72;;;2.75;;
21527;SDS011;10925;49.102;-0.370;2022-07-17T10:34:58;2.28;;;2.08;;
21527;SDS011;10925;49.102;-0.370;2022-07-17T10:40:03;8.95;;;3.08;;
21527;SDS011;10925;49.102;-0.370;2022-07-17T10:42:37;3.90;;;2.38;;
21527;SDS011;10925;49.102;-0.370;2022-07-17T10:45:09;3.78;;;2.20;;
21527;SDS011;10925;49.102;-0.370;2022-07-17T10:47:54;3.20;;;1.98;;
21527;SDS011;10925;49.102;-0.370;2022-07-17T10:50:30;2.95;;;2.20;;
21527;SDS011;10925;49.102;-0.370;2022-07-17T10:55:31;3.42;;;2.00;;
21527;SDS011;10925;49.102;-0.370;2022-07-17T10:58:15;2.35;;;2.05;;
21527;SDS011;10925;49.102;-0.370;2022-07-17T11:04:02;3.75;;;2.17;;
21527;SDS011;10925;49.102;-0.370;2022-07-17T11:06:28;4.55;;;3.47;;
21527;SDS011;10925;49.102;-0.370;2022-07-17T11:09:06;6.75;;;2.90;;
21527;SDS011;10925;49.102;-0.370;2022-07-17T11:11:47;3.17;;;2.63;;
21527;SDS011;10925;49.102;-0.370;2022-07-17T11:14:22;2.33;;;2.13;;
21527;SDS011;10925;49.102;-0.370;2022-07-17T11:16:59;5.93;;;1.90;;
21527;SDS011;10925;49.102;-0.370;2022-07-17T11:19:26;5.40;;;2.05;;
21527;SDS011;10925;49.102;-0.370;2022-07-17T11:22:03;2.60;;;1.90;;
21527;SDS011;10925;49.102;-0.370;2022-07-17T11:27:01;3.22;;;1.73;;
21527;SDS011;10925;49.102;-0.370;2022-07-17T11:29:27;6.90;;;2.42;;
21527;SDS011;10925;49.102;-0.370;2022-07-17T11:31:55;3.78;;;1.67;;
21527;SDS011;10925;49.102;-0.370;2022-07-17T11:34:24;2.85;;;1.98;;
21527;SDS011;10925;49.102;-0.370;2022-07-17T11:37:00;2.13;;;1.70;;
21527;SDS011;10925;49.102;-0.370;2022-07-17T11:39:36;2.58;;;1.83;;
21527;SDS011;10925;49.102;-0.370;2022-07-17T11:42:02;3.42;;;1.73;;
21527;SDS011;10925;49.102;-0.370;2022-07-17T11:44:28;2.95;;;1.73;;
21527;SDS011;10925;49.102;-0.370;2022-07-17T11:46:54;4.97;;;2.10;;
21527;SDS011;10925;49.102;-0.370;2022-07-17T11:49:27;3.78;;;1.85;;
21527;SDS011;10925;49.102;-0.370;2022-07-17T11:51:55;2.33;;;1.83;;
21527;SDS011;10925;49.102;-0.370;2022-07-17T11:54:22;4.82;;;1.88;;
21527;SDS011;10925;49.102;-0.370;2022-07-17T11:56:53;5.07;;;1.90;;
21527;SDS011;10925;49.102;-0.370;2022-07-17T11:59:25;6.38;;;2.30;;
21527;SDS011;10925;49.102;-0.370;2022-07-17T12:01:52;2.80;;;1.85;;
21527;SDS011;10925;49.102;-0.370;2022-07-17T12:04:20;4.25;;;1.80;;
21527;SDS011;10925;49.102;-0.370;2022-07-17T12:07:01;2.50;;;1.75;;
21527;SDS011;10925;49.102;-0.370;2022-07-17T12:09:31;3.50;;;1.80;;
21527;SDS011;10925;49.102;-0.370;2022-07-17T12:12:01;2.20;;;1.95;;
21527;SDS011;10925;49.102;-0.370;2022-07-17T12:14:29;4.10;;;1.75;;
21527;SDS011;10925;49.102;-0.370;2022-07-17T12:17:02;2.47;;;1.50;;
21527;SDS011;10925;49.102;-0.370;2022-07-17T12:19:28;2.15;;;1.92;;
21527;SDS011;10925;49.102;-0.370;2022-07-17T12:22:00;4.00;;;1.95;;
21527;SDS011;10925;49.102;-0.370;2022-07-17T12:24:37;2.40;;;1.60;;
21527;SDS011;10925;49.102;-0.370;2022-07-17T12:27:03;1.83;;;1.70;;
21527;SDS011;10925;49.102;-0.370;2022-07-17T12:29:29;3.15;;;1.70;;
21527;SDS011;10925;49.102;-0.370;2022-07-17T12:32:02;2.72;;;1.60;;
21527;SDS011;10925;49.102;-0.370;2022-07-17T12:34:29;3.75;;;1.88;;
21527;SDS011;10925;49.102;-0.370;2022-07-17T12:36:56;3.42;;;1.67;;
21527;SDS011;10925;49.102;-0.370;2022-07-17T12:39:23;1.70;;;1.50;;
21527;SDS011;10925;49.102;-0.370;2022-07-17T12:41:48;3.42;;;1.90;;
21527;SDS011;10925;49.102;-0.370;2022-07-17T12:44:15;3.40;;;1.90;;
21527;SDS011;10925;49.102;-0.370;2022-07-17T12:46:42;6.45;;;1.90;;
21527;SDS011;10925;49.102;-0.370;2022-07-17T12:49:09;3.25;;;2.10;;
21527;SDS011;10925;49.102;-0.370;2022-07-17T12:51:36;2.22;;;1.63;;
21527;SDS011;10925;49.102;-0.370;2022-07-17T12:54:03;2.70;;;1.73;;
21527;SDS011;10925;49.102;-0.370;2022-07-17T12:56:30;3.95;;;1.52;;
21527;SDS011;10925;49.102;-0.370;2022-07-17T12:58:57;1.63;;;1.40;;
21527;SDS011;10925;49.102;-0.370;2022-07-17T13:01:28;2.30;;;1.40;;
21527;SDS011;10925;49.102;-0.370;2022-07-17T13:03:53;5.80;;;1.67;;
21527;SDS011;10925;49.102;-0.370;2022-07-17T13:06:19;2.05;;;1.38;;
21527;SDS011;10925;49.102;-0.370;2022-07-17T13:08:46;5.22;;;1.70;;
21527;SDS011;10925;49.102;-0.370;2022-07-17T13:11:12;6.95;;;1.50;;
21527;SDS011;10925;49.102;-0.370;2022-07-17T13:13:39;3.15;;;1.52;;
21527;SDS011;10925;49.102;-0.370;2022-07-17T13:16:10;6.22;;;3.38;;
21527;SDS011;10925;49.102;-0.370;2022-07-17T13:18:37;1.75;;;1.55;;
21527;SDS011;10925;49.102;-0.370;2022-07-17T13:21:04;3.22;;;1.67;;
21527;SDS011;10925;49.102;-0.370;2022-07-17T13:23:33;5.78;;;2.30;;
21527;SDS011;10925;49.102;-0.370;2022-07-17T13:25:59;4.75;;;1.80;;
21527;SDS011;10925;49.102;-0.370;2022-07-17T13:28:26;4.35;;;1.80;;
21527;SDS011;10925;49.102;-0.370;2022-07-17T13:30:52;2.28;;;1.60;;
21527;SDS011;10925;49.102;-0.370;2022-07-17T13:33:18;3.15;;;1.83;;
21527;SDS011;10925;49.102;-0.370;2022-07-17T13:35:43;3.05;;;1.42;;
21527;SDS011;10925;49.102;-0.370;2022-07-17T13:38:09;3.20;;;1.95;;
21527;SDS011;10925;49.102;-0.370;2022-07-17T13:40:36;2.08;;;1.30;;
21527;SDS011;10925;49.102;-0.370;2022-07-17T13:43:03;5.90;;;1.65;;
21527;SDS011;10925;49.102;-0.370;2022-07-17T13:45:30;5.20;;;1.80;;
21527;SDS011;10925;49.102;-0.370;2022-07-17T13:47:56;2.10;;;1.58;;
21527;SDS011;10925;49.102;-0.370;2022-07-17T13:50:22;2.00;;;1.50;;
21527;SDS011;10925;49.102;-0.370;2022-07-17T13:52:49;3.35;;;1.88;;
21527;SDS011;10925;49.102;-0.370;2022-07-17T13:55:16;3.55;;;1.83;;
21527;SDS011;10925;49.102;-0.370;2022-07-17T13:57:41;10.90;;;1.88;;
21527;SDS011;10925;49.102;-0.370;2022-07-17T14:00:08;5.53;;;1.75;;
21527;SDS011;10925;49.102;-0.370;2022-07-17T14:02:35;4.70;;;1.70;;
21527;SDS011;10925;49.102;-0.370;2022-07-17T14:05:02;3.22;;;1.50;;
21527;SDS011;10925;49.102;-0.370;2022-07-17T14:07:28;2.88;;;2.00;;
21527;SDS011;10925;49.102;-0.370;2022-07-17T14:09:53;2.42;;;1.73;;
21527;SDS011;10925;49.102;-0.370;2022-07-17T14:12:20;2.10;;;1.70;;
21527;SDS011;10925;49.102;-0.370;2022-07-17T14:14:46;4.82;;;1.90;;
21527;SDS011;10925;49.102;-0.370;2022-07-17T14:17:13;3.97;;;1.55;;
21527;SDS011;10925;49.102;-0.370;2022-07-17T14:19:40;2.75;;;1.75;;
21527;SDS011;10925;49.102;-0.370;2022-07-17T14:22:07;5.32;;;1.73;;
21527;SDS011;10925;49.102;-0.370;2022-07-17T14:24:34;3.28;;;1.55;;
21527;SDS011;10925;49.102;-0.370;2022-07-17T14:27:01;3.83;;;1.85;;
21527;SDS011;10925;49.102;-0.370;2022-07-17T14:29:26;3.60;;;1.65;;
21527;SDS011;10925;49.102;-0.370;2022-07-17T14:31:54;2.08;;;1.50;;
21527;SDS011;10925;49.102;-0.370;2022-07-17T14:34:25;7.03;;;2.00;;
21527;SDS011;10925;49.102;-0.370;2022-07-17T14:36:50;4.47;;;2.00;;
21527;SDS011;10925;49.102;-0.370;2022-07-17T14:39:19;6.20;;;1.80;;
21527;SDS011;10925;49.102;-0.370;2022-07-17T14:41:45;3.10;;;1.73;;
21527;SDS011;10925;49.102;-0.370;2022-07-17T14:44:11;4.20;;;1.80;;
21527;SDS011;10925;49.102;-0.370;2022-07-17T14:46:37;3.95;;;1.45;;
21527;SDS011;10925;49.102;-0.370;2022-07-17T14:49:02;2.42;;;1.52;;
21527;SDS011;10925;49.102;-0.370;2022-07-17T14:51:29;2.95;;;1.60;;